Time;durP1;ratioP1;P1;durP2;ratioP2;P2;SDS_P1;SDS_P2;PMS_P1;PMS_P2;Temp;Humidity;BMP_temperature;BMP_pressure;BME280_temperature;BME280_humidity;BME280_pressure;Samples;Min_cycle;Max_cycle;Signal;HPM_P1;HPM_P2
2023/12/13 00:01:45;;;;;;;2.17;1.33;;;;;;;9.41;98.93;99407.69;3607712;39;20090;-64
2023/12/13 00:04:10;;;;;;;3.28;1.55;;;;;;;9.40;98.81;99410.50;3605837;39;20055;-63
2023/12/13 00:06:37;;;;;;;3.53;1.80;;;;;;;9.40;99.04;99406.00;3608259;39;20059;-63
2023/12/13 00:09:03;;;;;;;5.88;1.67;;;;;;;9.42;98.43;99413.91;3609791;39;20070;-64
2023/12/13 00:11:28;;;;;;;6.28;2.13;;;;;;;9.41;99.04;99407.69;3611177;39;20063;-63
2023/12/13 00:13:54;;;;;;;3.42;1.60;;;;;;;9.39;98.49;99406.97;3607605;39;20067;-64
2023/12/13 00:16:21;;;;;;;5.22;1.73;;;;;;;9.40;99.63;99406.00;3609688;39;20051;-64
2023/12/13 00:18:47;;;;;;;7.32;1.58;;;;;;;9.39;98.98;99409.66;3605816;39;20040;-64
2023/12/13 00:21:17;;;;;;;6.55;1.67;;;;;;;9.38;99.37;99399.88;3609335;39;20312;-64
2023/12/13 00:23:45;;;;;;;3.17;1.60;;;;;;;9.25;99.46;99381.25;3608586;39;20039;-68
2023/12/13 00:26:16;;;;;;;3.47;1.67;;;;;;;9.39;99.54;99409.66;3606461;39;20136;-64
2023/12/13 00:28:43;;;;;;;4.82;1.50;;;;;;;9.39;99.99;99404.31;3608766;39;20054;-64
2023/12/13 00:31:10;;;;;;;3.78;1.30;;;;;;;9.37;100.00;99400.88;3608882;39;20047;-64
2023/12/13 00:33:37;;;;;;;3.70;1.85;;;;;;;9.39;99.81;99401.63;3610323;39;20397;-63
2023/12/13 00:36:04;;;;;;;5.43;2.05;;;;;;;9.40;99.66;99406.00;3605823;39;20055;-64
2023/12/13 00:38:29;;;;;;;3.85;1.70;;;;;;;9.40;100.00;99406.00;3606742;39;20083;-63
2023/12/13 00:40:55;;;;;;;4.03;1.40;;;;;;;9.39;100.00;99401.63;3607742;39;20107;-64
2023/12/13 00:43:21;;;;;;;3.10;1.17;;;;;;;9.41;99.82;99401.47;3608772;39;20055;-64
2023/12/13 00:45:48;;;;;;;3.28;1.50;;;;;;;9.40;99.77;99400.63;3608912;39;20399;-64
2023/12/13 00:48:13;;;;;;;5.75;1.70;;;;;;;9.41;99.92;99405.00;3608358;39;20052;-64
2023/12/13 00:50:39;;;;;;;5.72;1.63;;;;;;;9.40;99.83;99399.78;3606824;39;20063;-63
2023/12/13 00:53:05;;;;;;;2.33;1.33;;;;;;;9.30;99.73;99386.25;3607082;39;20343;-64
2023/12/13 00:55:30;;;;;;;4.30;1.85;;;;;;;9.39;100.00;99395.41;3607789;39;20334;-63
2023/12/13 00:57:57;;;;;;;3.97;1.58;;;;;;;9.38;99.58;99394.53;3608203;39;20066;-63
2023/12/13 01:00:23;;;;;;;5.07;2.00;;;;;;;9.18;99.72;99360.41;3609357;39;20343;-64
2023/12/13 01:02:49;;;;;;;3.85;1.35;;;;;;;9.37;100.00;99390.16;3607164;39;20055;-64
2023/12/13 01:05:14;;;;;;;4.97;1.80;;;;;;;9.35;100.00;99394.78;3608392;39;20039;-64
2023/12/13 01:07:40;;;;;;;3.38;1.55;;;;;;;9.37;100.00;99395.50;3607745;39;20055;-64
2023/12/13 01:10:06;;;;;;;4.15;1.60;;;;;;;9.36;100.00;99392.97;3607124;39;20319;-64
2023/12/13 01:12:32;;;;;;;8.63;2.20;;;;;;;9.34;100.00;99385.03;3607670;39;20055;-64
2023/12/13 01:14:57;;;;;;;4.30;2.00;;;;;;;9.34;100.00;99385.03;3599617;39;20082;-64
2023/12/13 01:17:23;;;;;;;6.50;1.73;;;;;;;9.11;100.00;99341.28;3609943;39;20063;-64
2023/12/13 01:19:50;;;;;;;8.30;1.95;;;;;;;9.34;100.00;99382.34;3609253;39;20259;-64
2023/12/13 01:22:15;;;;;;;3.50;1.77;;;;;;;9.34;100.00;99390.38;3608870;39;20236;-64
2023/12/13 01:24:41;;;;;;;4.05;1.90;;;;;;;9.33;100.00;99388.69;3608827;39;20136;-64
2023/12/13 01:27:07;;;;;;;3.72;1.63;;;;;;;9.33;100.00;99393.22;3607483;39;20066;-64
2023/12/13 01:29:32;;;;;;;5.78;2.17;;;;;;;9.33;100.00;99382.47;3607231;39;20055;-64
2023/12/13 01:31:58;;;;;;;5.88;1.73;;;;;;;9.33;100.00;99385.16;3606903;39;20070;-64
2023/12/13 01:34:23;;;;;;;4.50;1.77;;;;;;;9.32;100.00;99376.25;3609204;39;20054;-64
2023/12/13 01:36:49;;;;;;;4.22;1.60;;;;;;;9.30;100.00;99383.56;3609831;39;20492;-65
2023/12/13 01:39:15;;;;;;;4.47;1.70;;;;;;;9.29;100.00;99379.16;3610911;39;20051;-64
2023/12/13 01:41:44;;;;;;;7.57;1.90;;;;;;;9.28;100.00;99381.00;3607758;39;20046;-64
2023/12/13 01:44:10;;;;;;;5.88;1.73;;;;;;;9.29;100.00;99382.72;3607685;39;20059;-64
2023/12/13 01:46:37;;;;;;;5.65;2.10;;;;;;;9.29;100.00;99384.53;3607129;39;20066;-63
2023/12/13 01:49:06;;;;;;;9.27;2.72;;;;;;;9.27;100.00;99378.47;3607135;39;20063;-64
2023/12/13 01:51:35;;;;;;;8.43;2.08;;;;;;;9.27;100.00;99390.03;3605755;39;20051;-63
2023/12/13 01:54:03;;;;;;;6.30;2.20;;;;;;;9.34;100.00;99390.38;3606230;39;20379;-64
2023/12/13 01:56:31;;;;;;;9.20;2.35;;;;;;;9.34;100.00;99395.75;3605516;39;20131;-63
2023/12/13 01:58:58;;;;;;;6.32;1.88;;;;;;;9.34;100.00;99395.75;3608232;39;20074;-64
2023/12/13 02:01:23;;;;;;;9.73;2.47;;;;;;;9.36;100.00;99393.81;3607994;39;20143;-64
2023/12/13 02:03:49;;;;;;;8.63;2.10;;;;;;;9.38;100.00;99394.53;3605771;39;20379;-64
2023/12/13 02:06:15;;;;;;;10.10;2.63;;;;;;;9.37;100.00;99390.16;3604847;39;20054;-63
2023/12/13 02:08:41;;;;;;;5.13;2.10;;;;;;;9.38;100.00;99389.16;3604579;39;20384;-64
2023/12/13 02:11:06;;;;;;;8.70;2.40;;;;;;;9.41;100.00;99390.75;3604996;39;20047;-63
2023/12/13 02:13:32;;;;;;;10.68;2.40;;;;;;;9.41;100.00;99388.91;3608796;39;20063;-64
2023/12/13 02:15:58;;;;;;;5.93;2.08;;;;;;;9.42;100.00;99387.97;3606897;39;20071;-64
2023/12/13 02:18:24;;;;;;;7.30;2.42;;;;;;;9.43;100.00;99388.81;3608254;39;20051;-64
2023/12/13 02:20:52;;;;;;;6.20;1.90;;;;;;;9.43;100.00;99395.03;3604043;39;20508;-64
2023/12/13 02:23:17;;;;;;;8.50;2.00;;;;;;;9.44;100.00;99387.81;3606859;39;20109;-63
2023/12/13 02:25:57;;;;;;;7.93;2.47;;;;;;;8.76;100.00;99271.75;3606323;39;20067;-64
2023/12/13 02:28:25;;;;;;;7.93;2.50;;;;;;;9.38;100.00;99374.91;3608475;39;20055;-63
2023/12/13 02:30:55;;;;;;;6.80;2.45;;;;;;;9.43;100.00;99378.94;3607330;39;20059;-64
2023/12/13 02:33:29;;;;;;;5.00;2.33;;;;;;;9.43;100.00;99381.63;3607821;39;20144;-64
2023/12/13 02:36:03;;;;;;;7.03;2.38;;;;;;;9.44;100.00;99377.09;3598013;39;20083;-62
2023/12/13 02:38:29;;;;;;;6.50;2.75;;;;;;;9.45;100.00;99378.78;3609216;39;20115;-63
2023/12/13 02:40:54;;;;;;;10.10;2.50;;;;;;;9.42;100.00;99371.00;3605321;39;20062;-63
2023/12/13 02:43:20;;;;;;;7.15;2.47;;;;;;;9.39;100.00;99377.47;3609714;39;20047;-63
2023/12/13 02:45:45;;;;;;;9.50;2.45;;;;;;;9.38;100.00;99377.59;3609359;39;20051;-63
2023/12/13 02:48:11;;;;;;;10.68;2.55;;;;;;;9.34;100.00;99370.78;3609234;39;20057;-64
2023/12/13 02:50:38;;;;;;;10.05;2.50;;;;;;;9.33;100.00;99372.59;3610495;39;20050;-63
2023/12/13 02:53:06;;;;;;;7.00;2.15;;;;;;;9.32;100.00;99367.34;3608645;39;20434;-64
2023/12/13 02:55:32;;;;;;;6.20;2.33;;;;;;;9.32;100.00;99365.50;3607211;39;20055;-64
2023/12/13 02:58:00;;;;;;;10.98;3.53;;;;;;;9.33;100.00;99364.56;3607214;39;20057;-64
2023/12/13 03:00:26;;;;;;;10.27;2.65;;;;;;;9.33;100.00;99369.06;3608882;39;20047;-63
2023/12/13 03:02:51;;;;;;;8.80;2.35;;;;;;;9.33;100.00;99367.25;3608585;39;20065;-63
2023/12/13 03:05:17;;;;;;;10.13;2.90;;;;;;;9.11;100.00;99330.56;3608800;39;20446;-64
2023/12/13 03:07:43;;;;;;;9.73;2.33;;;;;;;9.28;100.00;99354.19;3607574;39;20055;-63
2023/12/13 03:10:09;;;;;;;9.70;3.05;;;;;;;9.37;100.00;99365.16;3606837;39;20043;-64
2023/12/13 03:12:35;;;;;;;10.48;2.50;;;;;;;9.38;100.00;99370.38;3606197;39;20047;-64
2023/12/13 03:15:01;;;;;;;9.05;2.30;;;;;;;9.39;100.00;99360.53;3610099;39;20067;-64
2023/12/13 03:17:26;;;;;;;12.27;2.80;;;;;;;9.37;100.00;99362.47;3605652;39;20051;-64
2023/12/13 03:19:52;;;;;;;12.32;2.80;;;;;;;9.39;100.00;99356.03;3603547;39;21479;-64
2023/12/13 03:22:17;;;;;;;13.27;2.70;;;;;;;9.39;100.00;99360.53;3605256;39;20050;-65
2023/12/13 03:24:43;;;;;;;12.02;2.40;;;;;;;9.41;100.00;99359.41;3606713;39;20403;-63
2023/12/13 03:27:09;;;;;;;12.30;2.83;;;;;;;9.35;100.00;99354.53;3604942;39;20059;-64
2023/12/13 03:29:34;;;;;;;10.68;2.42;;;;;;;9.41;100.00;99359.41;3607279;39;20051;-64
2023/12/13 03:32:00;;;;;;;11.10;2.13;;;;;;;9.27;100.00;99339.09;3606365;39;20077;-64
2023/12/13 03:34:26;;;;;;;8.57;2.30;;;;;;;9.44;100.00;99358.31;3609339;39;20086;-65
2023/12/13 03:36:52;;;;;;;6.72;2.33;;;;;;;9.30;100.00;99330.78;3606503;39;20389;-65
2023/12/13 03:39:17;;;;;;;11.75;2.42;;;;;;;9.46;100.00;99359.91;3605976;39;20071;-64
2023/12/13 03:41:43;;;;;;;7.65;2.40;;;;;;;9.50;100.00;99357.81;3607091;39;20307;-64
2023/12/13 03:44:09;;;;;;;13.63;2.80;;;;;;;9.50;100.00;99356.00;3609379;39;20066;-64
2023/12/13 03:46:34;;;;;;;14.38;2.90;;;;;;;9.51;100.00;99357.72;3607711;39;20387;-64
2023/12/13 03:49:00;;;;;;;7.82;2.28;;;;;;;9.52;100.00;99345.16;3607964;39;20062;-64
2023/12/13 03:51:25;;;;;;;7.05;2.15;;;;;;;9.53;100.00;99344.16;3610360;39;20047;-63
2023/12/13 03:53:51;;;;;;;12.38;2.70;;;;;;;9.53;100.00;99346.84;3610571;39;20085;-64
2023/12/13 03:56:16;;;;;;;8.50;2.40;;;;;;;9.52;100.00;99343.31;3610320;39;20318;-64
2023/12/13 03:58:42;;;;;;;16.20;2.90;;;;;;;9.53;100.00;99338.81;3610332;39;20054;-64
2023/12/13 04:01:08;;;;;;;10.73;2.95;;;;;;;9.47;100.00;99331.25;3607207;39;20055;-63
2023/12/13 04:03:34;;;;;;;10.50;2.70;;;;;;;9.33;100.00;99302.03;3605661;39;20059;-64
2023/12/13 04:06:01;;;;;;;10.20;2.67;;;;;;;9.52;100.00;99334.44;3607658;39;20120;-63
2023/12/13 04:08:27;;;;;;;13.85;3.15;;;;;;;9.45;100.00;99319.78;3611752;39;20066;-63
2023/12/13 04:10:52;;;;;;;14.85;3.08;;;;;;;9.51;100.00;99338.94;3611078;39;20051;-63
2023/12/13 04:13:18;;;;;;;12.23;2.72;;;;;;;9.52;100.00;99334.44;3610750;39;20062;-63
2023/12/13 04:15:44;;;;;;;12.45;3.25;;;;;;;9.53;100.00;99336.97;3611032;39;20387;-62
2023/12/13 04:18:09;;;;;;;11.48;2.92;;;;;;;9.51;100.00;99327.34;3608573;39;20062;-63
2023/12/13 04:20:35;;;;;;;13.98;2.80;;;;;;;9.55;100.00;99334.19;3607428;39;20064;-63
2023/12/13 04:23:00;;;;;;;12.90;2.97;;;;;;;9.56;100.00;99340.38;3606629;39;20311;-64
2023/12/13 04:25:26;;;;;;;11.68;2.92;;;;;;;9.53;100.00;99331.59;3614195;39;20060;-63
2023/12/13 04:27:52;;;;;;;12.35;3.03;;;;;;;9.58;100.00;99333.06;3611136;39;20047;-64
2023/12/13 04:30:17;;;;;;;16.83;3.28;;;;;;;9.59;100.00;99335.63;3609393;39;20071;-63
2023/12/13 04:32:43;;;;;;;13.07;3.30;;;;;;;9.60;100.00;99337.31;3610151;39;20091;-64
2023/12/13 04:35:10;;;;;;;12.88;2.92;;;;;;;9.60;100.00;99337.31;3607376;39;20055;-64
2023/12/13 04:37:36;;;;;;;13.82;3.00;;;;;;;9.61;100.00;99341.72;3607049;39;20095;-64
2023/12/13 04:40:03;;;;;;;10.10;3.25;;;;;;;9.65;100.00;99332.44;3609085;39;20043;-64
2023/12/13 04:42:28;;;;;;;18.00;3.40;;;;;;;9.66;100.00;99326.09;3609393;39;20050;-64
2023/12/13 04:44:55;;;;;;;12.32;3.25;;;;;;;9.56;100.00;99309.03;3609530;39;20508;-63
2023/12/13 04:47:21;;;;;;;10.65;3.03;;;;;;;9.65;100.00;99331.59;3610386;39;20525;-64
2023/12/13 04:49:46;;;;;;;12.77;3.65;;;;;;;9.65;100.00;99327.06;3609893;39;20127;-64
2023/12/13 04:52:12;;;;;;;16.10;3.20;;;;;;;9.66;100.00;99327.91;3606695;39;20055;-64
2023/12/13 04:54:38;;;;;;;17.58;3.25;;;;;;;9.67;100.00;99326.94;3610132;39;20058;-64
2023/12/13 04:57:04;;;;;;;15.73;3.63;;;;;;;9.66;100.00;99323.41;3608893;39;20048;-63
2023/12/13 04:59:30;;;;;;;10.65;3.25;;;;;;;9.69;100.00;99327.66;3610478;39;20055;-63
2023/12/13 05:01:56;;;;;;;13.63;3.70;;;;;;;9.68;100.00;99325.97;3612143;39;20059;-63
2023/12/13 05:04:22;;;;;;;12.43;3.97;;;;;;;9.69;100.00;99330.34;3614530;39;20128;-63
2023/12/13 05:06:47;;;;;;;12.85;3.35;;;;;;;9.69;100.00;99330.34;3609845;39;20044;-63
2023/12/13 05:09:13;;;;;;;19.00;4.10;;;;;;;9.64;100.00;99317.34;3608783;39;20063;-63
2023/12/13 05:11:38;;;;;;;17.95;4.22;;;;;;;9.71;100.00;99315.00;3611434;39;20054;-64
2023/12/13 05:14:04;;;;;;;14.93;3.65;;;;;;;9.69;100.00;99314.25;3609644;39;20435;-63
2023/12/13 05:16:30;;;;;;;15.80;4.10;;;;;;;9.69;100.00;99315.09;3608972;39;20050;-64
2023/12/13 05:18:55;;;;;;;14.00;4.13;;;;;;;9.70;100.00;99313.25;3609263;39;20450;-63
2023/12/13 05:21:21;;;;;;;13.77;3.67;;;;;;;9.71;100.00;99312.31;3610167;39;20065;-63
2023/12/13 05:23:48;;;;;;;15.52;3.45;;;;;;;9.71;100.00;99313.16;3606741;39;20307;-64
2023/12/13 05:26:13;;;;;;;15.10;4.30;;;;;;;9.70;100.00;99311.44;3607005;39;20051;-64
2023/12/13 05:28:39;;;;;;;14.95;3.28;;;;;;;9.60;100.00;99293.53;3607042;39;20059;-64
2023/12/13 05:31:05;;;;;;;8.77;3.13;;;;;;;9.46;100.00;99274.06;3608434;39;20051;-64
2023/12/13 05:33:30;;;;;;;15.18;3.70;;;;;;;9.69;100.00;99309.72;3608305;39;20055;-63
2023/12/13 05:35:56;;;;;;;12.32;3.58;;;;;;;9.68;100.00;99320.59;3608549;39;20602;-63
2023/12/13 05:38:21;;;;;;;14.63;3.38;;;;;;;9.69;100.00;99314.25;3607023;39;20067;-63
2023/12/13 05:40:47;;;;;;;14.20;3.28;;;;;;;9.69;100.00;99311.56;3609577;39;20058;-64
2023/12/13 05:43:12;;;;;;;15.80;3.20;;;;;;;9.68;100.00;99316.09;3608382;39;20399;-64
2023/12/13 05:45:38;;;;;;;17.02;3.50;;;;;;;9.70;100.00;99321.31;3606957;39;20108;-63
2023/12/13 05:48:05;;;;;;;13.85;3.10;;;;;;;9.67;100.00;99316.19;3607535;39;20084;-64
2023/12/13 05:50:30;;;;;;;15.45;3.50;;;;;;;9.67;100.00;99313.50;3611384;39;20059;-64
2023/12/13 05:52:56;;;;;;;15.57;3.13;;;;;;;9.68;100.00;99317.94;3607573;39;20314;-64
2023/12/13 05:55:22;;;;;;;16.42;3.80;;;;;;;9.68;100.00;99318.78;3608325;39;20120;-63
2023/12/13 05:57:48;;;;;;;15.32;3.28;;;;;;;9.67;100.00;99318.88;3603677;39;20059;-64
2023/12/13 06:00:14;;;;;;;19.58;4.05;;;;;;;9.66;100.00;99319.88;3607166;39;20051;-64
2023/12/13 06:02:40;;;;;;;11.45;3.33;;;;;;;9.65;100.00;99319.03;3607338;39;20050;-64
2023/12/13 06:05:06;;;;;;;17.00;4.22;;;;;;;9.66;100.00;99319.88;3606203;39;20055;-64
2023/12/13 06:07:32;;;;;;;16.65;5.18;;;;;;;9.64;100.00;99317.34;3611278;39;20051;-64
2023/12/13 06:09:58;;;;;;;19.52;7.03;;;;;;;9.63;100.00;99314.75;3609601;39;20055;-63
2023/12/13 06:12:24;;;;;;;16.02;5.90;;;;;;;9.62;100.00;99313.06;3605954;39;20104;-64
2023/12/13 06:14:50;;;;;;;19.15;5.00;;;;;;;9.60;100.00;99315.84;3608434;39;20487;-63
2023/12/13 06:17:15;;;;;;;17.60;4.50;;;;;;;9.54;100.00;99322.56;3606909;39;20419;-64
2023/12/13 06:19:41;;;;;;;13.15;4.10;;;;;;;9.56;100.00;99326.97;3608865;39;20328;-63
2023/12/13 06:22:07;;;;;;;10.45;2.97;;;;;;;9.52;100.00;99319.19;3605739;39;20295;-63
2023/12/13 06:24:33;;;;;;;16.85;3.70;;;;;;;9.54;100.00;99330.63;3610735;39;20299;-63
2023/12/13 06:26:59;;;;;;;15.98;3.95;;;;;;;9.54;100.00;99332.44;3608323;39;20063;-63
2023/12/13 06:29:25;;;;;;;15.13;4.03;;;;;;;9.53;100.00;99334.28;3607426;39;20439;-63
2023/12/13 06:31:51;;;;;;;15.82;3.75;;;;;;;9.46;100.00;99324.19;3606539;39;20065;-63
2023/12/13 06:34:17;;;;;;;13.13;3.75;;;;;;;9.47;100.00;99326.75;3606936;39;20063;-63
2023/12/13 06:36:42;;;;;;;15.70;4.68;;;;;;;9.48;100.00;99333.81;3606658;39;20047;-64
2023/12/13 06:39:11;;;;;;;14.43;4.20;;;;;;;9.46;100.00;99324.19;3606260;39;20061;-64
2023/12/13 06:41:37;;;;;;;21.63;5.15;;;;;;;9.51;100.00;99336.25;3608216;39;20047;-64
2023/12/13 06:44:03;;;;;;;14.82;4.68;;;;;;;9.47;100.00;99329.41;3603798;39;20083;-64
2023/12/13 06:46:29;;;;;;;13.77;4.85;;;;;;;9.52;100.00;99335.28;3604862;39;20294;-64
2023/12/13 06:48:55;;;;;;;16.40;4.88;;;;;;;9.53;100.00;99336.97;3603721;39;20051;-64
2023/12/13 06:51:21;;;;;;;11.95;4.68;;;;;;;9.54;100.00;99340.50;3604299;39;20063;-64
2023/12/13 06:53:47;;;;;;;20.52;5.38;;;;;;;9.54;100.00;99346.72;3603146;39;20054;-65
2023/12/13 06:56:12;;;;;;;12.30;4.45;;;;;;;9.55;100.00;99339.53;3605118;39;20257;-64
2023/12/13 06:58:38;;;;;;;11.45;4.60;;;;;;;9.53;100.00;99342.34;3607285;39;20123;-64
2023/12/13 07:01:04;;;;;;;15.82;4.32;;;;;;;9.52;100.00;99334.44;3605358;39;20268;-63
2023/12/13 07:03:30;;;;;;;12.82;3.95;;;;;;;9.53;100.00;99341.47;3604364;39;20055;-64
2023/12/13 07:05:56;;;;;;;16.63;5.28;;;;;;;9.54;100.00;99338.66;3604927;39;20393;-65
2023/12/13 07:08:22;;;;;;;20.63;4.97;;;;;;;9.54;100.00;99344.03;3604455;39;20055;-63
2023/12/13 07:10:47;;;;;;;11.65;4.47;;;;;;;9.56;100.00;99345.75;3607127;39;20055;-64
2023/12/13 07:13:13;;;;;;;13.45;4.32;;;;;;;9.53;100.00;99344.16;3607367;39;20279;-64
2023/12/13 07:15:38;;;;;;;14.40;4.63;;;;;;;9.54;100.00;99343.19;3605004;39;20319;-64
2023/12/13 07:18:04;;;;;;;13.48;4.78;;;;;;;9.54;100.00;99346.72;3604919;39;20061;-64
2023/12/13 07:20:30;;;;;;;17.33;6.07;;;;;;;9.55;100.00;99355.63;3608054;39;20058;-65
2023/12/13 07:22:57;;;;;;;17.20;6.85;;;;;;;9.51;100.00;99341.63;3605284;39;20044;-64
2023/12/13 07:25:23;;;;;;;16.85;6.20;;;;;;;9.56;100.00;99356.47;3610205;39;20083;-64
2023/12/13 07:27:48;;;;;;;16.88;6.30;;;;;;;9.53;100.00;99342.34;3609723;39;20051;-63
2023/12/13 07:30:14;;;;;;;12.00;5.18;;;;;;;9.53;100.00;99353.06;3611333;39;20047;-64
2023/12/13 07:32:41;;;;;;;14.25;5.75;;;;;;;9.51;100.00;99352.34;3607655;39;20043;-64
2023/12/13 07:35:08;;;;;;;11.68;4.68;;;;;;;9.51;100.00;99349.66;3607474;39;20058;-64
2023/12/13 07:37:35;;;;;;;14.02;4.85;;;;;;;9.50;100.00;99347.09;3607750;39;20457;-64
2023/12/13 07:40:03;;;;;;;15.05;6.40;;;;;;;9.56;100.00;99343.06;3610962;39;20074;-64
2023/12/13 07:42:29;;;;;;;14.65;6.57;;;;;;;9.53;100.00;99353.06;3613040;39;20063;-63
2023/12/13 07:44:54;;;;;;;11.45;6.72;;;;;;;9.57;100.00;99352.81;3608075;39;20058;-64
2023/12/13 07:47:20;;;;;;;17.05;6.47;;;;;;;9.58;100.00;99349.16;3609254;39;20051;-63
2023/12/13 07:49:45;;;;;;;14.48;6.05;;;;;;;9.57;100.00;99350.97;3610619;39;20088;-63
2023/12/13 07:52:12;;;;;;;11.73;6.25;;;;;;;9.57;100.00;99342.94;3605953;39;20051;-63
2023/12/13 07:54:37;;;;;;;13.50;6.90;;;;;;;9.58;100.00;99360.75;3605498;39;20063;-64
2023/12/13 07:57:03;;;;;;;18.10;7.20;;;;;;;9.59;100.00;99370.50;3610279;39;20302;-64
2023/12/13 07:59:29;;;;;;;14.07;6.93;;;;;;;9.60;100.00;99369.50;3609542;39;20059;-63
2023/12/13 08:01:55;;;;;;;15.55;6.47;;;;;;;9.62;100.00;99361.34;3606354;39;20050;-64
2023/12/13 08:04:20;;;;;;;18.42;6.40;;;;;;;9.62;100.00;99361.34;3606957;39;20055;-63
2023/12/13 08:06:46;;;;;;;10.23;5.85;;;;;;;9.63;100.00;99363.03;3609945;39;20069;-64
2023/12/13 08:09:11;;;;;;;16.10;6.10;;;;;;;9.65;100.00;99355.75;3604019;39;20051;-63
2023/12/13 08:11:38;;;;;;;12.20;5.82;;;;;;;9.34;100.00;99306.41;3599771;39;20067;-64
2023/12/13 08:14:04;;;;;;;14.25;5.55;;;;;;;9.64;100.00;99356.69;3601953;39;20070;-64
2023/12/13 08:16:30;;;;;;;13.80;5.78;;;;;;;9.69;100.00;99359.88;3606580;39;20380;-63
2023/12/13 08:18:56;;;;;;;11.90;5.20;;;;;;;9.46;100.00;99319.69;3606725;39;20050;-63
2023/12/13 08:21:23;;;;;;;12.55;5.10;;;;;;;9.72;100.00;99359.63;3607039;39;20051;-63
2023/12/13 08:23:50;;;;;;;14.35;5.63;;;;;;;9.48;100.00;99323.09;3606843;39;20152;-64
2023/12/13 08:26:16;;;;;;;13.55;5.78;;;;;;;9.74;100.00;99361.19;3605852;39;20052;-63
2023/12/13 08:28:42;;;;;;;13.75;5.75;;;;;;;9.74;100.00;99369.25;3604801;39;20050;-64
2023/12/13 08:31:11;;;;;;;13.43;5.88;;;;;;;9.75;100.00;99367.41;3606106;39;20286;-64
2023/12/13 08:33:40;;;;;;;12.70;5.82;;;;;;;9.76;100.00;99374.47;3606088;39;20697;-63
2023/12/13 08:36:13;;;;;;;19.83;5.85;;;;;;;9.77;100.00;99376.22;3604683;39;20128;-62
2023/12/13 08:38:42;;;;;;;14.67;5.70;;;;;;;9.76;100.00;99380.69;3607437;39;20058;-63
2023/12/13 08:41:09;;;;;;;14.35;5.85;;;;;;;9.77;100.00;99377.06;3607064;39;20312;-63
2023/12/13 08:43:35;;;;;;;14.60;5.07;;;;;;;9.81;100.00;99387.53;3597419;39;20403;-63
2023/12/13 08:46:01;;;;;;;12.15;5.05;;;;;;;9.82;100.00;99382.03;3607680;39;20055;-63
2023/12/13 08:48:27;;;;;;;14.25;4.72;;;;;;;9.75;100.00;99372.78;3605333;39;20139;-63
2023/12/13 08:50:53;;;;;;;14.60;4.68;;;;;;;9.63;100.00;99352.31;3607209;39;20063;-63
2023/12/13 08:53:18;;;;;;;9.45;4.57;;;;;;;9.84;100.00;99377.41;3607973;39;20048;-63
2023/12/13 08:55:44;;;;;;;16.00;5.00;;;;;;;9.89;100.00;99391.28;3607068;39;20426;-63
2023/12/13 08:58:11;;;;;;;17.02;5.00;;;;;;;9.93;100.00;99386.53;3604850;39;20119;-63
2023/12/13 09:00:37;;;;;;;15.40;5.85;;;;;;;9.96;100.00;99392.50;3605766;39;20039;-63
2023/12/13 09:03:03;;;;;;;12.65;5.55;;;;;;;9.96;100.00;99381.75;3604903;39;20132;-63
2023/12/13 09:05:29;;;;;;;10.57;5.13;;;;;;;10.03;100.00;99392.84;3603613;39;20059;-63
2023/12/13 09:07:55;;;;;;;13.27;6.03;;;;;;;10.07;100.00;99388.91;3605100;39;20058;-63
2023/12/13 09:10:22;;;;;;;15.98;6.03;;;;;;;9.87;100.00;99360.19;3603452;39;20048;-63
2023/12/13 09:12:48;;;;;;;14.43;5.72;;;;;;;10.10;100.00;99398.56;3607418;39;20439;-63
2023/12/13 09:15:18;;;;;;;11.30;5.07;;;;;;;10.11;100.00;99398.41;3607957;39;20082;-63
2023/12/13 09:17:47;;;;;;;14.68;4.88;;;;;;;10.12;100.00;99396.63;3606168;39;20124;-63
2023/12/13 09:20:16;;;;;;;12.80;4.68;;;;;;;10.11;100.00;99400.25;3607441;39;20371;-63
2023/12/13 09:22:43;;;;;;;16.25;4.97;;;;;;;10.10;100.00;99394.03;3606235;39;20063;-63
2023/12/13 09:25:12;;;;;;;9.68;4.53;;;;;;;10.18;100.00;99401.44;3604165;39;20047;-63
2023/12/13 09:27:38;;;;;;;12.90;4.45;;;;;;;10.21;100.00;99406.56;3608175;39;20050;-63
2023/12/13 09:30:05;;;;;;;13.40;4.28;;;;;;;10.23;100.00;99404.59;3605960;39;20052;-63
2023/12/13 09:32:33;;;;;;;11.30;4.65;;;;;;;10.23;100.00;99410.81;3606244;39;20161;-63
2023/12/13 09:34:59;;;;;;;13.70;4.85;;;;;;;10.23;100.00;99408.13;3607198;39;20372;-63
2023/12/13 09:37:25;;;;;;;12.25;4.47;;;;;;;10.28;100.00;99413.19;3605451;39;20146;-63
2023/12/13 09:39:50;;;;;;;13.18;4.60;;;;;;;10.28;100.00;99415.88;3606632;39;20387;-62
2023/12/13 09:42:18;;;;;;;16.73;4.78;;;;;;;10.30;100.00;99419.25;3605579;39;20050;-64
2023/12/13 09:44:48;;;;;;;12.32;4.63;;;;;;;10.10;100.00;99385.97;3606441;39;20078;-62
2023/12/13 09:47:17;;;;;;;10.73;4.78;;;;;;;10.32;100.00;99408.41;3608509;39;20300;-63
2023/12/13 09:49:43;;;;;;;15.98;5.30;;;;;;;10.38;100.00;99424.84;3608074;39;20047;-63
2023/12/13 09:52:10;;;;;;;11.48;4.50;;;;;;;10.39;100.00;99426.56;3606317;39;20059;-62
2023/12/13 09:54:40;;;;;;;11.63;4.70;;;;;;;10.37;100.00;99425.84;3603896;39;20117;-63
2023/12/13 09:57:06;;;;;;;12.70;5.07;;;;;;;10.44;100.00;99423.50;3599431;39;20127;-63
2023/12/13 09:59:32;;;;;;;11.70;4.88;;;;;;;10.43;100.00;99429.81;3605292;39;20067;-64
2023/12/13 10:01:58;;;;;;;11.75;4.47;;;;;;;10.43;100.00;99428.03;3607769;39;20053;-64
2023/12/13 10:04:28;;;;;;;10.95;4.57;;;;;;;10.44;100.00;99439.63;3604666;39;20085;-65
2023/12/13 10:06:55;;;;;;;11.13;5.07;;;;;;;10.28;100.00;99413.19;3606233;39;20392;-65
2023/12/13 10:09:21;;;;;;;8.52;4.90;;;;;;;10.44;100.00;99442.31;3610367;39;20453;-64
2023/12/13 10:11:46;;;;;;;10.52;5.10;;;;;;;10.44;100.00;99445.84;3604029;39;20063;-64
2023/12/13 10:14:12;;;;;;;12.88;5.63;;;;;;;10.42;100.00;99445.09;3604928;39;20078;-64
2023/12/13 10:16:41;;;;;;;13.57;5.43;;;;;;;10.38;100.00;99440.97;3606332;39;20063;-64
2023/12/13 10:19:07;;;;;;;10.95;5.35;;;;;;;10.38;100.00;99451.72;3607019;39;20061;-63
2023/12/13 10:21:37;;;;;;;10.10;5.35;;;;;;;10.38;100.00;99446.34;3606457;39;20078;-64
2023/12/13 10:24:06;;;;;;;13.02;5.32;;;;;;;10.40;100.00;99449.78;3607983;39;20054;-64
2023/12/13 10:26:35;;;;;;;14.25;5.20;;;;;;;10.42;100.00;99452.31;3603940;39;20059;-64
2023/12/13 10:29:03;;;;;;;10.70;5.93;;;;;;;10.42;100.00;99447.78;3606042;39;20049;-64
2023/12/13 10:31:30;;;;;;;12.60;5.30;;;;;;;10.41;100.00;99447.94;3604426;39;20070;-64
2023/12/13 10:33:56;;;;;;;11.68;5.13;;;;;;;10.41;100.00;99445.25;3605842;39;20047;-64
2023/12/13 10:36:28;;;;;;;11.88;5.25;;;;;;;10.37;100.00;99450.03;3606065;39;20061;-64
2023/12/13 10:38:56;;;;;;;10.25;5.05;;;;;;;10.39;100.00;99458.78;3604486;39;20059;-64
2023/12/13 10:41:26;;;;;;;11.45;5.20;;;;;;;10.38;100.00;99451.72;3604724;39;20086;-64
2023/12/13 10:43:57;;;;;;;13.48;6.28;;;;;;;10.42;100.00;99455.00;3605657;39;20088;-64
2023/12/13 10:46:27;;;;;;;13.40;5.95;;;;;;;10.45;100.00;99452.06;3606038;39;20058;-62
2023/12/13 10:48:55;;;;;;;16.25;6.07;;;;;;;10.47;100.00;99451.94;3605287;39;20155;-65
2023/12/13 10:51:22;;;;;;;12.40;4.60;;;;;;;10.49;99.95;99452.66;3604201;39;20059;-64
2023/12/13 10:53:49;;;;;;;11.73;5.07;;;;;;;10.49;100.00;99450.81;3606609;39;20054;-63
2023/12/13 10:56:15;;;;;;;12.52;5.75;;;;;;;10.51;99.72;99453.38;3604750;39;20412;-63
2023/12/13 10:58:44;;;;;;;13.05;4.88;;;;;;;10.32;99.11;99425.38;3606004;39;20063;-64
2023/12/13 11:01:12;;;;;;;11.40;4.60;;;;;;;10.30;99.07;99427.31;3606624;39;20096;-64
2023/12/13 11:03:53;;;;;;;10.32;4.00;;;;;;;10.36;98.92;99445.59;3604315;39;20055;-63
2023/12/13 11:06:22;;;;;;;12.18;4.90;;;;;;;10.45;98.91;99452.91;3603936;39;20327;-63
2023/12/13 11:08:47;;;;;;;10.57;4.50;;;;;;;10.43;98.97;99454.88;3607686;39;20087;-63
2023/12/13 11:11:18;;;;;;;9.20;5.05;;;;;;;10.45;99.12;99455.59;3605245;39;20077;-63
2023/12/13 11:13:50;;;;;;;12.68;5.32;;;;;;;10.44;98.84;99461.09;3607404;39;20049;-63
2023/12/13 11:16:17;;;;;;;14.18;6.97;;;;;;;10.45;99.51;99460.13;3605075;39;20055;-63
2023/12/13 11:18:45;;;;;;;14.82;5.68;;;;;;;10.44;99.34;99461.09;3608326;39;20048;-64
2023/12/13 11:21:24;;;;;;;17.05;5.40;;;;;;;10.47;99.58;99478.81;3605249;39;20303;-63
2023/12/13 11:23:51;;;;;;;12.57;5.60;;;;;;;10.47;99.80;99476.13;3604058;39;20047;-64